createdAt,value
2022-10-19T00:00:28.445Z,6.69
2022-10-19T00:01:25.780Z,6.72
2022-10-19T00:02:23.107Z,6.43
2022-10-19T00:03:23.138Z,6.86
2022-10-19T00:04:20.750Z,6.75
2022-10-19T00:05:20.952Z,6.58
2022-10-19T00:06:26.340Z,6.48
2022-10-19T00:07:23.883Z,6.34
2022-10-19T00:08:21.288Z,6.95
2022-10-19T00:09:20.469Z,6.84
2022-10-19T00:10:17.767Z,6.49
2022-10-19T00:11:15.143Z,7.05
2022-10-19T00:12:13.332Z,7.44
2022-10-19T00:13:10.663Z,6.52
2022-10-19T00:14:08.551Z,7.09
2022-10-19T00:15:06.320Z,6.55
2022-10-19T00:16:11.285Z,6.58
2022-10-19T00:17:08.975Z,6.24
2022-10-19T00:18:06.776Z,6.96
2022-10-19T00:19:06.506Z,6.87
2022-10-19T00:20:04.022Z,6.58
2022-10-19T00:21:05.248Z,6.36
2022-10-19T00:22:02.569Z,6.70
2022-10-19T00:22:59.853Z,7.08
2022-10-19T00:23:57.170Z,6.56
2022-10-19T00:24:56.525Z,6.31
2022-10-19T00:25:57.230Z,6.72
2022-10-19T00:26:54.508Z,6.76
2022-10-19T00:27:51.815Z,6.69
2022-10-19T00:28:49.418Z,6.76
2022-10-19T00:29:46.778Z,6.97
2022-10-19T00:30:44.093Z,6.83
2022-10-19T00:31:41.868Z,6.51
2022-10-19T00:32:39.165Z,6.12
2022-10-19T00:33:36.531Z,6.08
2022-10-19T00:34:33.833Z,6.52
2022-10-19T00:35:31.131Z,6.45
2022-10-19T00:36:30.245Z,6.32
2022-10-19T00:37:27.665Z,6.33
2022-10-19T00:38:25.000Z,6.67
2022-10-19T00:39:22.467Z,6.17
2022-10-19T00:40:20.094Z,6.42
2022-10-19T00:41:19.233Z,6.41
2022-10-19T00:42:16.546Z,6.51
2022-10-19T00:43:24.410Z,6.46
2022-10-19T00:44:30.776Z,6.48
2022-10-19T00:45:28.066Z,6.52
2022-10-19T00:46:26.557Z,6.51
2022-10-19T00:47:24.798Z,6.38
2022-10-19T00:48:28.204Z,6.36
2022-10-19T00:49:46.136Z,6.42
2022-10-19T00:50:45.155Z,6.35
2022-10-19T00:51:46.322Z,6.52
2022-10-19T00:52:43.879Z,5.89
2022-10-19T00:53:41.691Z,6.58
2022-10-19T00:54:41.811Z,7.21
2022-10-19T00:55:39.793Z,6.67
2022-10-19T00:56:40.168Z,6.44
2022-10-19T00:57:37.641Z,6.47
2022-10-19T00:58:35.834Z,6.73
2022-10-19T00:59:34.419Z,7.28
2022-10-19T01:00:33.928Z,6.59
2022-10-19T01:01:33.006Z,6.94
2022-10-19T01:02:30.648Z,6.34
2022-10-19T01:03:28.117Z,6.46
2022-10-19T01:04:27.186Z,6.29
2022-10-19T01:05:25.327Z,6.20
2022-10-19T01:06:24.046Z,6.67
2022-10-19T01:07:21.805Z,6.98
2022-10-19T01:08:19.295Z,6.60
2022-10-19T01:09:17.189Z,7.36
2022-10-19T01:10:14.743Z,6.71
2022-10-19T01:11:14.246Z,7.46
2022-10-19T01:12:20.515Z,6.67
2022-10-19T01:13:32.311Z,6.60
2022-10-19T01:14:35.114Z,7.19
2022-10-19T01:15:46.505Z,6.96
2022-10-19T01:16:46.888Z,7.06
2022-10-19T01:17:50.309Z,6.53
2022-10-19T01:19:07.865Z,6.58
2022-10-19T01:20:11.608Z,7.29
2022-10-19T01:21:22.440Z,6.90
2022-10-19T01:22:19.948Z,6.84
2022-10-19T01:23:20.265Z,6.70
2022-10-19T01:24:21.808Z,6.88
2022-10-19T01:25:52.789Z,7.08
2022-10-19T01:27:08.374Z,6.91
2022-10-19T01:28:11.938Z,6.70
2022-10-19T01:29:27.021Z,6.70
2022-10-19T01:30:47.020Z,6.53
2022-10-19T01:31:54.019Z,6.55
2022-10-19T01:32:51.309Z,6.42
2022-10-19T01:34:14.758Z,6.11
2022-10-19T01:35:22.866Z,7.07
2022-10-19T01:36:29.029Z,6.61
2022-10-19T01:37:47.554Z,6.67
2022-10-19T01:38:50.753Z,7.01
2022-10-19T01:40:01.177Z,6.46
2022-10-19T01:41:13.639Z,6.88
2022-10-19T01:42:15.831Z,6.92
2022-10-19T01:43:22.128Z,6.77
2022-10-19T01:44:27.708Z,6.93
2022-10-19T01:45:29.069Z,6.43
2022-10-19T01:46:40.111Z,6.59
2022-10-19T01:47:42.791Z,6.30
2022-10-19T01:48:44.133Z,6.84
2022-10-19T01:49:41.395Z,6.75
2022-10-19T01:50:47.704Z,6.87
2022-10-19T01:51:49.452Z,6.62
2022-10-19T01:52:49.971Z,6.94
2022-10-19T01:53:51.238Z,6.51
2022-10-19T01:54:51.301Z,6.80
2022-10-19T01:55:51.410Z,6.94
2022-10-19T01:56:50.477Z,6.75
2022-10-19T01:57:53.672Z,6.73
2022-10-19T01:58:51.604Z,7.18
2022-10-19T01:59:50.060Z,7.04
2022-10-19T02:00:52.089Z,7.38
2022-10-19T02:01:52.386Z,6.97
2022-10-19T02:02:51.594Z,6.66
2022-10-19T02:03:49.806Z,7.13
2022-10-19T02:04:49.229Z,7.01
2022-10-19T02:05:49.384Z,6.28
2022-10-19T02:06:47.139Z,7.08
2022-10-19T02:07:48.164Z,6.91
2022-10-19T02:08:47.349Z,7.45
2022-10-19T02:09:44.680Z,6.89
2022-10-19T02:10:44.521Z,6.97
2022-10-19T02:11:44.177Z,6.54
2022-10-19T02:12:46.941Z,6.57
2022-10-19T02:13:47.033Z,6.86
2022-10-19T02:14:47.370Z,7.30
2022-10-19T02:15:47.878Z,7.18
2022-10-19T02:16:49.417Z,7.92
2022-10-19T02:17:49.640Z,7.47
2022-10-19T02:18:50.618Z,7.07
2022-10-19T02:19:48.142Z,6.87
2022-10-19T02:20:46.261Z,6.90
2022-10-19T02:21:43.568Z,6.90
2022-10-19T02:22:41.666Z,6.56
2022-10-19T02:23:39.452Z,6.70
2022-10-19T02:24:36.899Z,7.17
2022-10-19T02:25:35.092Z,6.83
2022-10-19T02:26:33.130Z,6.64
2022-10-19T02:27:30.538Z,6.79
2022-10-19T02:28:29.913Z,6.77
2022-10-19T02:29:27.873Z,6.76
2022-10-19T02:30:27.140Z,7.08
2022-10-19T02:31:27.835Z,6.87
2022-10-19T02:32:25.905Z,7.04
2022-10-19T02:33:23.435Z,6.97
2022-10-19T02:34:20.841Z,6.74
2022-10-19T02:35:18.304Z,6.44
2022-10-19T02:36:15.673Z,6.91
2022-10-19T02:37:13.058Z,6.51
2022-10-19T02:38:14.062Z,6.14
2022-10-19T02:39:11.578Z,6.64
2022-10-19T02:40:09.793Z,7.29
2022-10-19T02:41:18.577Z,7.40
2022-10-19T02:42:33.391Z,6.89
2022-10-19T02:43:34.434Z,7.10
2022-10-19T02:44:38.576Z,6.97
2022-10-19T02:45:40.837Z,6.61
2022-10-19T02:46:44.817Z,6.85
2022-10-19T02:47:52.387Z,7.33
2022-10-19T02:48:51.444Z,7.38
2022-10-19T02:49:49.399Z,7.46
2022-10-19T02:50:52.033Z,7.19
2022-10-19T02:51:55.129Z,7.87
2022-10-19T02:52:52.521Z,7.53
2022-10-19T02:53:49.869Z,7.50
2022-10-19T02:54:47.529Z,8.10
2022-10-19T02:55:47.591Z,8.73
2022-10-19T02:56:44.887Z,7.70
2022-10-19T02:57:42.255Z,7.55
2022-10-19T02:58:39.535Z,7.83
2022-10-19T02:59:36.813Z,8.36
2022-10-19T03:00:34.173Z,8.64
2022-10-19T03:01:31.474Z,8.58
2022-10-19T03:02:28.935Z,8.32
2022-10-19T03:03:26.227Z,7.42
2022-10-19T03:04:23.546Z,7.27
2022-10-19T03:05:20.917Z,7.25
2022-10-19T03:06:18.253Z,7.08
2022-10-19T03:07:17.130Z,7.82
2022-10-19T03:08:14.473Z,7.61
2022-10-19T03:09:11.836Z,7.42
2022-10-19T03:10:18.103Z,7.19
2022-10-19T03:11:15.383Z,7.50
2022-10-19T03:12:13.561Z,7.58
2022-10-19T03:13:10.857Z,6.89
2022-10-19T03:14:08.191Z,6.78
2022-10-19T03:15:05.866Z,6.81
2022-10-19T03:16:07.103Z,7.26
2022-10-19T03:17:04.672Z,7.66
2022-10-19T03:18:02.033Z,7.12
2022-10-19T03:18:59.314Z,7.15
2022-10-19T03:19:56.786Z,7.34
2022-10-19T03:21:01.611Z,7.61
2022-10-19T03:21:58.933Z,6.68
2022-10-19T03:22:56.312Z,7.76
2022-10-19T03:23:54.526Z,7.50
2022-10-19T03:24:51.854Z,7.39
2022-10-19T03:25:49.257Z,7.01
2022-10-19T03:26:46.661Z,7.36
2022-10-19T03:27:44.010Z,7.77
2022-10-19T03:28:41.515Z,7.28
2022-10-19T03:29:38.864Z,7.45
2022-10-19T03:30:36.219Z,7.45
2022-10-19T03:31:33.652Z,7.50
2022-10-19T03:32:30.955Z,7.16
2022-10-19T03:33:28.260Z,7.24
2022-10-19T03:34:25.572Z,7.70
2022-10-19T03:35:22.859Z,7.34
2022-10-19T03:36:24.963Z,7.69
2022-10-19T03:37:22.253Z,7.94
2022-10-19T03:38:19.562Z,7.45
2022-10-19T03:39:17.201Z,7.32
2022-10-19T03:40:14.503Z,7.33
2022-10-19T03:41:12.305Z,7.35
2022-10-19T03:42:09.630Z,6.94
2022-10-19T03:43:06.963Z,6.43
2022-10-19T03:44:04.904Z,8.06
2022-10-19T03:45:02.401Z,7.77
2022-10-19T03:45:59.736Z,7.25
2022-10-19T03:46:57.014Z,7.77
2022-10-19T03:47:54.433Z,7.66
2022-10-19T03:48:52.271Z,7.81
2022-10-19T03:49:50.558Z,7.62
2022-10-19T03:50:47.832Z,7.67
2022-10-19T03:51:45.168Z,7.37
2022-10-19T03:52:42.789Z,7.16
2022-10-19T03:53:40.696Z,7.33
2022-10-19T03:54:37.999Z,7.40
2022-10-19T03:55:35.300Z,7.09
2022-10-19T03:56:33.368Z,8.30
2022-10-19T03:57:30.814Z,7.44
2022-10-19T03:58:28.323Z,7.78
2022-10-19T03:59:25.718Z,7.53
2022-10-19T04:00:23.238Z,8.15
2022-10-19T04:01:22.082Z,8.02
2022-10-19T04:02:19.445Z,7.80
2022-10-19T04:03:16.760Z,7.32
2022-10-19T04:04:15.611Z,7.45
2022-10-19T04:05:12.911Z,7.40
2022-10-19T04:06:15.808Z,7.19
2022-10-19T04:07:15.699Z,6.68
2022-10-19T04:08:13.002Z,7.50
2022-10-19T04:09:12.682Z,7.18
2022-10-19T04:10:10.001Z,7.09
2022-10-19T04:11:12.616Z,7.22
2022-10-19T04:12:09.942Z,7.23
2022-10-19T04:13:07.221Z,7.03
2022-10-19T04:14:04.713Z,7.48
2022-10-19T04:15:02.033Z,7.08
2022-10-19T04:15:59.308Z,7.02
2022-10-19T04:16:56.599Z,6.71
2022-10-19T04:17:53.957Z,7.20
2022-10-19T04:18:51.787Z,7.32
2022-10-19T04:19:49.080Z,7.54
2022-10-19T04:20:46.387Z,6.49
2022-10-19T04:21:44.765Z,6.82
2022-10-19T04:22:42.037Z,6.90
2022-10-19T04:23:39.422Z,6.52
2022-10-19T04:24:36.723Z,7.04
2022-10-19T04:25:34.018Z,6.68
2022-10-19T04:26:31.658Z,7.17
2022-10-19T04:27:28.999Z,6.74
2022-10-19T04:28:26.422Z,6.60
2022-10-19T04:29:27.967Z,6.70
2022-10-19T04:30:27.344Z,6.72
2022-10-19T04:31:25.037Z,6.91
2022-10-19T04:32:22.356Z,6.52
2022-10-19T04:33:19.663Z,7.10
2022-10-19T04:34:17.067Z,7.07
2022-10-19T04:35:14.428Z,6.84
2022-10-19T04:36:12.178Z,7.50
2022-10-19T04:37:09.897Z,7.15
2022-10-19T04:38:07.234Z,7.34
2022-10-19T04:39:05.331Z,7.38
2022-10-19T04:40:03.885Z,7.13
2022-10-19T04:41:09.303Z,7.98
2022-10-19T04:42:06.694Z,7.46
2022-10-19T04:43:04.907Z,6.89
2022-10-19T04:44:03.713Z,7.45
2022-10-19T04:45:00.990Z,7.87
2022-10-19T04:46:02.082Z,7.41
2022-10-19T04:46:59.385Z,7.58
2022-10-19T04:47:56.778Z,7.57
2022-10-19T04:48:54.720Z,7.85
2022-10-19T04:49:52.024Z,9.87
2022-10-19T04:50:49.336Z,8.41
2022-10-19T04:51:46.753Z,7.80
2022-10-19T04:52:45.105Z,7.87
2022-10-19T04:53:43.388Z,7.64
2022-10-19T04:54:40.689Z,8.58
2022-10-19T04:55:42.137Z,7.93
2022-10-19T04:56:39.547Z,8.49
2022-10-19T04:57:37.069Z,8.33
2022-10-19T04:58:34.827Z,7.99
2022-10-19T04:59:32.254Z,7.69
2022-10-19T05:00:29.557Z,8.09
2022-10-19T05:01:28.086Z,8.33
2022-10-19T05:02:25.379Z,7.81
2022-10-19T05:03:22.750Z,7.20
2022-10-19T05:04:20.067Z,8.08
2022-10-19T05:05:17.465Z,7.44
2022-10-19T05:06:15.529Z,7.63
2022-10-19T05:07:12.839Z,7.85
2022-10-19T05:08:11.071Z,7.67
2022-10-19T05:09:08.391Z,7.72
2022-10-19T05:10:06.766Z,7.27
2022-10-19T05:11:05.900Z,7.32
2022-10-19T05:12:03.895Z,7.55
2022-10-19T05:13:02.433Z,7.55
2022-10-19T05:13:59.765Z,7.34
2022-10-19T05:14:57.051Z,7.18
2022-10-19T05:15:57.687Z,7.30
2022-10-19T05:16:55.032Z,7.61
2022-10-19T05:17:52.328Z,7.10
2022-10-19T05:18:51.157Z,7.46
2022-10-19T05:19:48.433Z,8.00
2022-10-19T05:20:45.739Z,7.51
2022-10-19T05:21:43.034Z,7.31
2022-10-19T05:22:40.507Z,7.50
2022-10-19T05:23:37.799Z,7.23
2022-10-19T05:24:35.124Z,7.06
2022-10-19T05:25:32.407Z,7.57
2022-10-19T05:26:30.311Z,7.17
2022-10-19T05:27:27.752Z,6.96
2022-10-19T05:28:25.035Z,6.89
2022-10-19T05:29:23.512Z,6.88
2022-10-19T05:30:21.911Z,7.34
2022-10-19T05:31:20.451Z,7.40
2022-10-19T05:32:17.782Z,7.62
2022-10-19T05:33:15.062Z,7.13
2022-10-19T05:34:12.345Z,6.74
2022-10-19T05:35:09.617Z,7.44
2022-10-19T05:36:13.844Z,6.59
2022-10-19T05:37:11.144Z,6.62
2022-10-19T05:38:08.481Z,7.07
2022-10-19T05:39:07.472Z,7.13
2022-10-19T05:40:04.993Z,6.81
2022-10-19T05:41:02.268Z,6.93
2022-10-19T05:41:59.642Z,7.00
2022-10-19T05:42:56.969Z,6.61
2022-10-19T05:43:56.179Z,6.79
2022-10-19T05:44:53.465Z,7.08
2022-10-19T05:45:50.775Z,6.94
2022-10-19T05:46:49.356Z,6.76
2022-10-19T05:47:46.636Z,6.95
2022-10-19T05:48:45.103Z,6.86
2022-10-19T05:49:42.386Z,6.85
2022-10-19T05:50:39.812Z,6.66
2022-10-19T05:51:37.344Z,6.94
2022-10-19T05:52:34.630Z,6.45
2022-10-19T05:53:33.027Z,6.33
2022-10-19T05:54:30.414Z,6.53
2022-10-19T05:55:27.745Z,6.79
2022-10-19T05:56:29.799Z,7.31
2022-10-19T05:57:27.183Z,6.75
2022-10-19T05:58:24.578Z,6.86
2022-10-19T05:59:21.983Z,6.67
2022-10-19T06:00:19.385Z,6.96
2022-10-19T06:01:19.073Z,6.94
2022-10-19T06:02:16.363Z,6.86
2022-10-19T06:03:13.656Z,6.98
2022-10-19T06:04:14.006Z,7.69
2022-10-19T06:05:11.373Z,7.80
2022-10-19T06:06:09.216Z,7.86
2022-10-19T06:07:06.694Z,7.58
2022-10-19T06:08:04.049Z,7.98
2022-10-19T06:09:01.470Z,7.49
2022-10-19T06:09:58.861Z,7.18
2022-10-19T06:11:07.110Z,7.34
2022-10-19T06:12:04.536Z,7.49
2022-10-19T06:13:01.896Z,7.29
2022-10-19T06:14:00.872Z,7.28
2022-10-19T06:14:58.159Z,7.34
2022-10-19T06:15:55.431Z,7.14
2022-10-19T06:16:52.797Z,7.51
2022-10-19T06:17:50.079Z,6.99
2022-10-19T06:18:47.474Z,7.07
2022-10-19T06:19:44.764Z,7.50
2022-10-19T06:20:42.415Z,7.86
2022-10-19T06:21:41.993Z,8.03
2022-10-19T06:22:42.784Z,7.44
2022-10-19T06:24:42.930Z,7.52
2022-10-19T06:25:40.646Z,7.88
2022-10-19T06:26:37.925Z,7.57
2022-10-19T06:27:35.560Z,7.68
2022-10-19T06:28:33.132Z,8.30
2022-10-19T06:29:30.435Z,7.73
2022-10-19T06:30:28.141Z,8.10
2022-10-19T06:31:25.550Z,7.65
2022-10-19T06:32:22.919Z,7.98
2022-10-19T06:33:20.210Z,7.87
2022-10-19T06:34:17.706Z,7.51
2022-10-19T06:35:16.144Z,7.36
2022-10-19T06:36:19.033Z,7.80
2022-10-19T06:37:16.397Z,7.82
2022-10-19T06:38:13.919Z,8.07
2022-10-19T06:39:11.269Z,8.32
2022-10-19T06:40:09.249Z,8.20
2022-10-19T06:41:06.824Z,8.32
2022-10-19T06:42:04.177Z,8.60
2022-10-19T06:43:01.680Z,8.91
2022-10-19T06:43:59.014Z,8.56
2022-10-19T06:44:56.352Z,8.93
2022-10-19T06:45:53.929Z,9.10
2022-10-19T06:46:51.202Z,9.71
2022-10-19T06:47:48.608Z,9.20
2022-10-19T06:48:53.575Z,10.04
2022-10-19T06:49:50.872Z,10.16
2022-10-19T06:50:55.696Z,9.78
2022-10-19T06:51:53.043Z,9.72
2022-10-19T06:52:50.345Z,9.96
2022-10-19T06:53:48.951Z,10.66
2022-10-19T06:54:48.892Z,10.63
2022-10-19T06:55:46.206Z,10.26
2022-10-19T06:56:43.542Z,10.84
2022-10-19T06:57:40.893Z,10.93
2022-10-19T06:58:38.331Z,11.42
2022-10-19T06:59:35.625Z,12.34
2022-10-19T07:00:33.060Z,11.87
2022-10-19T07:01:30.603Z,12.24
2022-10-19T07:02:27.965Z,12.38
2022-10-19T07:03:26.059Z,12.18
2022-10-19T07:04:23.372Z,12.02
2022-10-19T07:05:20.831Z,12.14
2022-10-19T07:06:18.579Z,12.61
2022-10-19T07:07:16.051Z,12.56
2022-10-19T07:08:13.346Z,12.77
2022-10-19T07:09:10.764Z,12.35
2022-10-19T07:10:08.224Z,12.11
2022-10-19T07:11:07.220Z,11.63
2022-10-19T07:12:04.571Z,12.21
2022-10-19T07:13:01.939Z,12.37
2022-10-19T07:13:59.340Z,11.82
2022-10-19T07:14:56.726Z,12.11
2022-10-19T07:16:03.530Z,12.38
2022-10-19T07:17:01.555Z,11.83
2022-10-19T07:17:58.866Z,11.35
2022-10-19T07:18:56.179Z,11.44
2022-10-19T07:19:53.555Z,12.36
2022-10-19T07:20:55.501Z,12.02
2022-10-19T07:21:53.267Z,11.59
2022-10-19T07:22:50.631Z,11.53
2022-10-19T07:23:48.231Z,12.06
2022-10-19T07:24:45.535Z,11.64
2022-10-19T07:25:42.858Z,12.19
2022-10-19T07:26:40.508Z,12.42
2022-10-19T07:27:40.123Z,12.12
2022-10-19T07:28:38.226Z,11.86
2022-10-19T07:29:35.562Z,12.54
2022-10-19T07:30:32.901Z,12.82
2022-10-19T07:31:30.693Z,12.88
2022-10-19T07:32:29.434Z,12.08
2022-10-19T07:33:27.560Z,13.10
2022-10-19T07:34:28.204Z,12.72
2022-10-19T07:35:26.882Z,13.14
2022-10-19T07:36:25.222Z,13.59
2022-10-19T07:37:22.578Z,13.23
2022-10-19T07:38:19.886Z,13.03
2022-10-19T07:39:17.769Z,12.42
2022-10-19T07:40:15.151Z,12.49
2022-10-19T07:41:15.004Z,12.48
2022-10-19T07:42:12.540Z,12.73
2022-10-19T07:43:10.001Z,13.03
2022-10-19T07:44:08.241Z,12.74
2022-10-19T07:45:07.449Z,12.34
2022-10-19T07:46:06.836Z,13.25
2022-10-19T07:47:04.860Z,12.48
2022-10-19T07:48:02.214Z,12.58
2022-10-19T07:49:00.578Z,12.46
2022-10-19T07:49:57.898Z,12.30
2022-10-19T07:50:55.486Z,12.22
2022-10-19T07:51:54.212Z,12.38
2022-10-19T07:52:52.226Z,12.47
2022-10-19T07:53:49.847Z,12.50
2022-10-19T07:54:49.507Z,12.45
2022-10-19T07:55:46.875Z,12.58
2022-10-19T07:56:44.204Z,12.41
2022-10-19T07:57:43.679Z,12.64
2022-10-19T07:58:43.315Z,12.45
2022-10-19T07:59:40.657Z,12.61
2022-10-19T08:01:40.958Z,12.48
2022-10-19T08:02:54.756Z,13.56
2022-10-19T08:05:15.060Z,14.03
2022-10-19T08:06:14.583Z,13.70
2022-10-19T08:07:12.036Z,13.76
2022-10-19T08:08:09.674Z,13.36
2022-10-19T08:09:07.218Z,13.56
2022-10-19T08:10:05.024Z,13.69
2022-10-19T08:11:09.356Z,13.58
2022-10-19T08:12:07.293Z,13.47
2022-10-19T08:13:04.640Z,13.80
2022-10-19T08:14:03.274Z,13.08
2022-10-19T08:15:00.658Z,13.24
2022-10-19T08:15:57.976Z,13.57
2022-10-19T08:16:55.418Z,14.05
2022-10-19T08:17:52.828Z,13.60
2022-10-19T08:18:50.985Z,13.43
2022-10-19T08:19:48.534Z,13.56
2022-10-19T08:20:45.940Z,12.88
2022-10-19T08:21:45.052Z,13.03
2022-10-19T08:22:45.275Z,12.97
2022-10-19T08:23:42.735Z,12.99
2022-10-19T08:24:40.282Z,12.77
2022-10-19T08:25:37.703Z,13.17
2022-10-19T08:26:38.179Z,13.25
2022-10-19T08:28:33.910Z,12.31
2022-10-19T08:29:31.770Z,12.11
2022-10-19T08:30:29.436Z,13.43
2022-10-19T08:31:26.797Z,13.10
2022-10-19T08:32:24.213Z,13.69
2022-10-19T08:33:21.750Z,14.09
2022-10-19T08:34:19.108Z,14.51
2022-10-19T08:35:16.442Z,14.76
2022-10-19T08:36:14.513Z,14.89
2022-10-19T08:37:25.852Z,14.74
2022-10-19T08:38:29.228Z,15.28
2022-10-19T08:39:26.779Z,14.97
2022-10-19T08:40:26.742Z,15.02
2022-10-19T08:41:30.095Z,14.48
2022-10-19T08:42:41.010Z,14.73
2022-10-19T08:43:45.037Z,14.74
2022-10-19T08:44:45.197Z,13.40
2022-10-19T08:45:59.286Z,12.17
2022-10-19T08:47:08.287Z,12.50
2022-10-19T08:48:23.634Z,11.64
2022-10-19T08:49:24.538Z,11.19
2022-10-19T08:50:24.645Z,10.51
2022-10-19T08:51:22.513Z,10.41
2022-10-19T08:52:22.569Z,10.68
2022-10-19T08:53:45.777Z,10.14
2022-10-19T08:54:52.227Z,9.46
2022-10-19T08:55:50.212Z,9.24
2022-10-19T08:57:07.836Z,9.35
2022-10-19T08:58:24.000Z,8.74
2022-10-19T08:59:24.089Z,9.18
2022-10-19T09:00:24.240Z,9.06
2022-10-19T09:01:40.043Z,8.69
2022-10-19T09:02:46.875Z,9.27
2022-10-19T09:04:00.811Z,8.95
2022-10-19T09:05:02.869Z,9.09
2022-10-19T09:06:16.561Z,9.24
2022-10-19T09:07:29.265Z,9.18
2022-10-19T09:08:26.613Z,8.81
2022-10-19T09:09:25.457Z,8.51
2022-10-19T09:10:29.458Z,8.18
2022-10-19T09:11:37.276Z,8.36
2022-10-19T09:12:44.248Z,8.27
2022-10-19T09:14:00.423Z,8.64
2022-10-19T09:15:06.140Z,8.68
2022-10-19T09:16:04.789Z,8.81
2022-10-19T09:17:12.331Z,8.17
2022-10-19T09:18:30.094Z,8.47
2022-10-19T09:19:30.886Z,7.84
2022-10-19T09:20:48.830Z,8.54
2022-10-19T09:21:52.871Z,8.53
2022-10-19T09:22:56.995Z,8.56
2022-10-19T09:23:55.349Z,8.65
2022-10-19T09:24:56.066Z,8.15
2022-10-19T09:25:53.866Z,9.62
2022-10-19T09:26:53.544Z,8.78
2022-10-19T09:27:58.223Z,8.81
2022-10-19T09:28:59.569Z,8.07
2022-10-19T09:29:58.541Z,7.60
2022-10-19T09:30:57.875Z,7.43
2022-10-19T09:32:00.753Z,7.82
2022-10-19T09:33:02.143Z,7.94
2022-10-19T09:34:06.181Z,8.15
2022-10-19T09:35:21.763Z,8.63
2022-10-19T09:36:22.752Z,9.24
2022-10-19T09:37:26.275Z,8.04
2022-10-19T09:38:27.445Z,7.31
2022-10-19T09:39:28.648Z,7.27
2022-10-19T09:40:28.515Z,7.55
2022-10-19T09:41:25.849Z,7.39
2022-10-19T09:42:30.513Z,7.04
2022-10-19T09:43:28.292Z,6.70
2022-10-19T09:44:26.930Z,6.99
2022-10-19T09:45:48.506Z,6.81
2022-10-19T09:46:54.870Z,7.25
2022-10-19T09:47:53.246Z,6.84
2022-10-19T09:48:52.375Z,6.78
2022-10-19T09:49:49.877Z,7.32
2022-10-19T09:50:54.117Z,7.40
2022-10-19T09:51:52.649Z,7.39
2022-10-19T09:52:51.913Z,6.75
2022-10-19T09:53:54.556Z,6.40
2022-10-19T09:55:01.106Z,6.56
2022-10-19T09:56:03.020Z,6.56
2022-10-19T09:57:00.983Z,6.49
2022-10-19T09:58:03.615Z,6.08
2022-10-19T09:59:01.035Z,6.23
2022-10-19T09:59:58.895Z,6.28
2022-10-19T10:00:57.818Z,6.38
2022-10-19T10:02:14.644Z,6.23
2022-10-19T10:03:26.852Z,6.22
2022-10-19T10:04:24.156Z,6.24
2022-10-19T10:05:35.845Z,6.27
2022-10-19T10:06:34.166Z,6.23
2022-10-19T10:07:37.405Z,5.86
2022-10-19T10:08:38.046Z,5.56
2022-10-19T10:09:40.984Z,5.84
2022-10-19T10:10:39.746Z,6.64
2022-10-19T10:11:38.339Z,5.63
2022-10-19T10:12:36.416Z,5.42
2022-10-19T10:13:38.834Z,5.40
2022-10-19T10:14:36.856Z,5.66
2022-10-19T10:15:43.979Z,5.84
2022-10-19T10:16:41.344Z,5.57
2022-10-19T10:17:38.865Z,5.79
2022-10-19T10:18:50.057Z,6.11
2022-10-19T10:19:51.998Z,5.72
2022-10-19T10:21:01.397Z,5.58
2022-10-19T10:21:59.735Z,5.95
2022-10-19T10:22:59.557Z,5.43
2022-10-19T10:24:16.953Z,5.64
2022-10-19T10:25:18.693Z,5.80
2022-10-19T10:26:19.413Z,5.47
2022-10-19T10:27:28.692Z,4.96
2022-10-19T10:28:27.722Z,4.73
2022-10-19T10:29:29.802Z,5.09
2022-10-19T10:30:29.674Z,5.16
2022-10-19T10:31:29.505Z,5.01
2022-10-19T10:32:27.439Z,5.57
2022-10-19T10:33:40.410Z,5.87
2022-10-19T10:34:51.931Z,6.65
2022-10-19T10:35:55.708Z,5.71
2022-10-19T10:36:54.081Z,5.42
2022-10-19T10:37:52.575Z,5.79
2022-10-19T10:38:52.628Z,5.35
2022-10-19T10:39:55.776Z,4.83
2022-10-19T10:41:00.353Z,4.55
2022-10-19T10:42:02.666Z,4.96
2022-10-19T10:43:06.954Z,5.10
2022-10-19T10:44:08.261Z,4.96
2022-10-19T10:45:16.445Z,4.92
2022-10-19T10:46:17.145Z,4.79
2022-10-19T10:47:17.063Z,4.64
2022-10-19T10:48:14.382Z,4.52
2022-10-19T10:49:21.600Z,4.53
2022-10-19T10:50:24.578Z,4.69
2022-10-19T10:51:21.915Z,4.74
2022-10-19T10:52:20.064Z,4.55
2022-10-19T10:53:35.734Z,4.92
2022-10-19T10:54:33.985Z,4.77
2022-10-19T10:55:32.139Z,4.61
2022-10-19T10:56:33.519Z,4.88
2022-10-19T10:57:35.620Z,5.09
2022-10-19T10:58:32.940Z,5.22
2022-10-19T10:59:49.145Z,4.83
2022-10-19T11:00:49.261Z,4.69
2022-10-19T11:02:04.961Z,4.61
2022-10-19T11:03:15.304Z,5.23
2022-10-19T11:04:20.722Z,5.00
2022-10-19T11:05:26.877Z,4.83
2022-10-19T11:06:26.461Z,4.95
2022-10-19T11:07:26.599Z,4.70
2022-10-19T11:08:38.895Z,4.85
2022-10-19T11:09:39.391Z,4.79
2022-10-19T11:10:41.422Z,4.92
2022-10-19T11:11:49.672Z,4.94
2022-10-19T11:12:53.048Z,4.70
2022-10-19T11:13:59.149Z,5.00
2022-10-19T11:15:17.634Z,4.69
2022-10-19T11:16:17.001Z,4.84
2022-10-19T11:17:22.385Z,4.46
2022-10-19T11:18:24.809Z,4.29
2022-10-19T11:19:25.129Z,4.95
2022-10-19T11:20:23.401Z,4.54
2022-10-19T11:21:20.697Z,4.67
2022-10-19T11:22:28.777Z,4.61
2022-10-19T11:23:49.008Z,4.85
2022-10-19T11:25:21.642Z,4.61
2022-10-19T11:26:41.669Z,4.67
2022-10-19T11:27:47.615Z,4.97
2022-10-19T11:28:44.936Z,4.51
2022-10-19T11:29:48.145Z,4.33
2022-10-19T11:30:51.286Z,4.73
2022-10-19T11:31:51.144Z,4.54
2022-10-19T11:32:58.525Z,4.59
2022-10-19T11:33:55.989Z,4.91
2022-10-19T11:35:11.517Z,4.78
2022-10-19T11:36:20.551Z,4.66
2022-10-19T11:37:23.435Z,4.76
2022-10-19T11:38:29.628Z,4.76
2022-10-19T11:39:27.460Z,4.94
2022-10-19T11:41:16.452Z,4.84
2022-10-19T11:42:12.908Z,4.45
2022-10-19T11:43:23.561Z,4.88
2022-10-19T11:44:26.427Z,5.23
2022-10-19T11:45:30.020Z,5.00
2022-10-19T11:46:30.085Z,4.52
2022-10-19T11:47:30.092Z,5.88
2022-10-19T11:48:34.123Z,5.43
2022-10-19T11:49:31.554Z,5.40
2022-10-19T11:50:49.684Z,5.38
2022-10-19T11:51:58.163Z,5.20
2022-10-19T11:53:14.120Z,4.94
2022-10-19T11:54:25.368Z,4.87
2022-10-19T11:55:43.023Z,4.53
2022-10-19T11:57:01.536Z,5.04
2022-10-19T11:58:12.124Z,5.38
2022-10-19T11:59:18.595Z,4.78
2022-10-19T12:00:39.311Z,4.84
2022-10-19T12:01:55.253Z,5.05
2022-10-19T12:02:55.398Z,5.06
2022-10-19T12:03:58.510Z,4.76
2022-10-19T12:05:11.617Z,5.12
2022-10-19T12:06:10.930Z,5.21
2022-10-19T12:07:20.364Z,4.62
2022-10-19T12:08:20.485Z,4.52
2022-10-19T12:09:17.829Z,4.86
2022-10-19T12:10:21.339Z,4.99
2022-10-19T12:11:27.709Z,4.71
2022-10-19T12:12:31.033Z,5.25
2022-10-19T12:13:33.415Z,4.65
2022-10-19T12:14:34.050Z,5.33
2022-10-19T12:15:35.727Z,4.71
2022-10-19T12:16:39.081Z,4.53
2022-10-19T12:17:38.916Z,5.26
2022-10-19T12:18:36.212Z,5.01
2022-10-19T12:19:39.353Z,4.94
2022-10-19T12:20:40.171Z,5.21
2022-10-19T12:21:40.525Z,4.62
2022-10-19T12:22:38.442Z,4.67
2022-10-19T12:23:38.518Z,4.79
2022-10-19T12:24:36.119Z,4.68
2022-10-19T12:25:38.854Z,5.36
2022-10-19T12:26:37.004Z,5.69
2022-10-19T12:27:36.342Z,5.23
2022-10-19T12:28:43.187Z,5.18
2022-10-19T12:29:43.968Z,4.98
2022-10-19T12:30:41.481Z,4.99
2022-10-19T12:31:39.219Z,4.56
2022-10-19T12:32:42.593Z,4.79
2022-10-19T12:33:48.246Z,4.93
2022-10-19T12:34:48.398Z,4.85
2022-10-19T12:35:45.740Z,5.49
2022-10-19T12:36:45.794Z,5.04
2022-10-19T12:38:05.593Z,5.17
2022-10-19T12:39:02.953Z,5.57
2022-10-19T12:40:12.142Z,4.81
2022-10-19T12:41:18.341Z,5.65
2022-10-19T12:42:44.851Z,5.60
2022-10-19T12:44:02.728Z,5.65
2022-10-19T12:45:02.915Z,4.89
2022-10-19T12:46:12.619Z,5.03
2022-10-19T12:47:24.299Z,5.24
2022-10-19T12:48:24.591Z,5.47
2022-10-19T12:49:30.629Z,5.13
2022-10-19T12:51:00.128Z,5.20
2022-10-19T12:51:59.136Z,5.27
2022-10-19T12:52:56.545Z,5.09
2022-10-19T12:54:07.927Z,5.47
2022-10-19T12:55:24.684Z,5.35
2022-10-19T12:56:24.691Z,5.26
2022-10-19T12:57:30.235Z,5.40
2022-10-19T12:58:33.755Z,5.45
2022-10-19T12:59:33.980Z,5.23
2022-10-19T13:00:34.207Z,5.17
2022-10-19T13:01:34.320Z,5.22
2022-10-19T13:02:34.682Z,5.79
2022-10-19T13:03:44.400Z,5.96
2022-10-19T13:04:52.366Z,5.79
2022-10-19T13:05:57.417Z,5.53
2022-10-19T13:06:57.445Z,5.79
2022-10-19T13:07:55.216Z,5.73
2022-10-19T13:08:52.601Z,5.43
2022-10-19T13:09:50.054Z,5.45
2022-10-19T13:11:03.760Z,5.30
2022-10-19T13:12:19.771Z,5.67
2022-10-19T13:13:38.462Z,5.60
2022-10-19T13:14:38.635Z,5.44
2022-10-19T13:15:35.917Z,5.40
2022-10-19T13:16:39.644Z,5.21
2022-10-19T13:17:37.196Z,5.39
2022-10-19T13:19:00.682Z,6.13
2022-10-19T13:20:13.286Z,5.19
2022-10-19T13:21:10.610Z,5.63
2022-10-19T13:22:19.986Z,5.03
2022-10-19T13:23:17.626Z,4.79
2022-10-19T13:24:24.030Z,5.11
2022-10-19T13:25:31.206Z,4.92
2022-10-19T13:26:33.086Z,4.29
2022-10-19T13:27:37.334Z,2.90
2022-10-19T13:28:34.887Z,3.29
2022-10-19T13:29:41.156Z,2.59
2022-10-19T13:30:44.174Z,2.94
2022-10-19T13:31:41.510Z,3.30
2022-10-19T13:32:41.079Z,3.24